Time;durP1;ratioP1;P1;durP2;ratioP2;P2;SDS_P1;SDS_P2;PMS_P1;PMS_P2;Temp;Humidity;BMP_temperature;BMP_pressure;BME280_temperature;BME280_humidity;BME280_pressure;Samples;Min_cycle;Max_cycle;Signal;HPM_P1;HPM_P2
2023/04/20 00:00:52;;;;;;;12.32;7.35;;;4.80;99.90;;;3.51;100.00;97309.00;4971863;28;20416;-72
2023/04/20 00:03:20;;;;;;;12.25;8.40;;;4.80;99.90;;;3.51;100.00;97311.63;4971717;28;20413;-73
2023/04/20 00:05:48;;;;;;;15.37;6.90;;;4.80;99.90;;;3.42;100.00;97305.81;4971968;28;20424;-72
2023/04/20 00:08:14;;;;;;;11.40;7.30;;;4.60;99.90;;;3.45;100.00;97307.22;4970531;28;20867;-72
2023/04/20 00:10:40;;;;;;;10.13;7.33;;;4.60;99.90;;;3.29;100.00;97297.22;4971871;28;20404;-72
2023/04/20 00:13:06;;;;;;;11.82;7.60;;;4.60;99.90;;;3.26;100.00;97302.84;4971781;28;20492;-73
2023/04/20 00:15:32;;;;;;;12.57;8.70;;;4.50;99.90;;;3.28;100.00;97301.66;4971617;28;20408;-73
2023/04/20 00:18:01;;;;;;;13.93;8.20;;;4.60;99.90;;;3.21;100.00;97302.69;4971831;28;20415;-72
2023/04/20 00:20:27;;;;;;;10.88;7.85;;;4.50;99.90;;;3.20;100.00;97301.06;4973250;28;20528;-73
2023/04/20 00:22:53;;;;;;;14.13;8.82;;;4.50;99.90;;;3.20;100.00;97295.84;4975616;28;20412;-72
2023/04/20 00:25:19;;;;;;;13.18;8.57;;;4.50;99.90;;;3.19;100.00;97291.63;4975342;28;20415;-72
2023/04/20 00:27:45;;;;;;;13.65;9.18;;;4.50;99.90;;;3.17;100.00;97285.78;4975386;28;20491;-73
2023/04/20 00:30:13;;;;;;;13.90;8.43;;;4.50;99.90;;;3.13;100.00;97280.19;4975270;28;20408;-73
2023/04/20 00:32:39;;;;;;;14.82;7.95;;;4.50;99.90;;;3.14;100.00;97284.41;4975025;28;20551;-73
2023/04/20 00:35:07;;;;;;;14.02;8.10;;;4.40;99.90;;;3.15;100.00;97269.50;4974730;28;20495;-72
2023/04/20 00:37:33;;;;;;;11.63;6.75;;;4.40;99.90;;;3.07;100.00;97270.53;4974713;28;20451;-73
2023/04/20 00:39:59;;;;;;;9.68;7.32;;;4.30;99.90;;;2.93;100.00;97267.13;4973772;28;20575;-73
2023/04/20 00:42:25;;;;;;;14.67;7.40;;;4.20;99.90;;;2.97;100.00;97265.75;4973817;28;20758;-73
2023/04/20 00:44:51;;;;;;;9.80;7.40;;;4.20;99.90;;;3.00;100.00;97267.16;4975021;28;20427;-73
2023/04/20 00:47:17;;;;;;;8.75;6.15;;;4.20;99.90;;;2.86;100.00;97266.34;4975037;28;20472;-73
2023/04/20 00:49:43;;;;;;;10.48;7.05;;;4.20;99.90;;;2.78;100.00;97260.56;4975057;28;20414;-72
2023/04/20 00:52:10;;;;;;;11.43;8.00;;;4.10;99.90;;;2.81;100.00;97266.19;4974860;28;20408;-73
2023/04/20 00:54:36;;;;;;;11.30;7.68;;;4.10;99.90;;;2.74;100.00;97257.56;4973023;28;20985;-73
2023/04/20 00:57:04;;;;;;;12.43;8.33;;;4.10;99.90;;;2.71;100.00;97255.34;4974803;28;20495;-73
2023/04/20 00:59:30;;;;;;;14.98;9.60;;;4.10;99.90;;;2.81;100.00;97252.31;4974541;28;20485;-73
2023/04/20 01:01:56;;;;;;;11.98;7.47;;;4.00;99.90;;;2.75;100.00;97243.47;4974672;28;20488;-73
2023/04/20 01:04:22;;;;;;;10.75;7.10;;;4.10;99.90;;;2.68;100.00;97243.50;4974584;28;20434;-73
2023/04/20 01:06:48;;;;;;;13.70;7.77;;;4.00;99.90;;;2.64;100.00;97242.28;4974777;28;20408;-73
2023/04/20 01:09:15;;;;;;;12.52;8.25;;;4.00;99.90;;;2.63;100.00;97232.84;4974756;28;20406;-73
2023/04/20 01:11:41;;;;;;;13.40;8.68;;;3.90;99.90;;;2.71;100.00;97232.63;4974513;28;20932;-74
2023/04/20 01:14:07;;;;;;;10.32;7.13;;;4.00;99.90;;;2.63;100.00;97235.44;4974354;28;20412;-72
2023/04/20 01:16:35;;;;;;;14.97;8.50;;;4.00;99.90;;;2.63;100.00;97229.44;4974503;28;20499;-72
2023/04/20 01:19:01;;;;;;;11.20;8.00;;;3.90;99.90;;;2.52;100.00;97225.63;4974453;28;20412;-72
2023/04/20 01:21:27;;;;;;;11.73;7.50;;;3.90;99.90;;;2.48;100.00;97213.97;4974514;28;20926;-72
2023/04/20 01:23:54;;;;;;;15.90;7.93;;;3.80;99.90;;;2.53;100.00;97210.75;4974291;28;20482;-72
2023/04/20 01:26:23;;;;;;;10.63;7.80;;;3.90;99.90;;;2.46;100.00;97204.75;4973993;28;20463;-72
2023/04/20 01:28:49;;;;;;;12.30;8.63;;;3.80;99.90;;;2.44;100.00;97197.13;4974218;28;20404;-72
2023/04/20 01:31:15;;;;;;;14.48;9.15;;;3.80;99.90;;;2.43;100.00;97192.88;4973543;28;20405;-72
2023/04/20 01:33:41;;;;;;;12.40;7.75;;;3.70;99.90;;;2.42;100.00;97186.06;4974104;28;20419;-72
2023/04/20 01:36:08;;;;;;;12.15;8.18;;;3.80;99.90;;;2.45;100.00;97184.84;4974069;28;20436;-72
2023/04/20 01:38:35;;;;;;;13.55;8.80;;;3.70;99.90;;;2.42;100.00;97183.44;4974292;28;20408;-73
2023/04/20 01:41:05;;;;;;;11.57;7.40;;;3.70;99.90;;;2.33;100.00;97187.31;4973986;28;20424;-74
2023/04/20 01:43:34;;;;;;;10.02;7.60;;;3.70;99.90;;;2.25;100.00;97183.09;4973934;28;20524;-72
2023/04/20 01:46:00;;;;;;;15.45;8.85;;;3.60;99.90;;;2.24;100.00;97172.84;4974026;28;20457;-73
2023/04/20 01:48:26;;;;;;;13.23;8.55;;;3.60;99.90;;;2.21;100.00;97176.66;4974051;28;20408;-72
2023/04/20 01:50:53;;;;;;;17.40;9.63;;;3.60;99.90;;;2.21;100.00;97173.25;4973828;28;20442;-72
2023/04/20 01:53:19;;;;;;;11.00;7.88;;;3.60;99.90;;;2.19;100.00;97167.41;4973728;28;20720;-72
2023/04/20 01:55:46;;;;;;;15.93;10.23;;;3.60;99.90;;;2.25;100.00;97164.81;4973726;28;20479;-72
2023/04/20 01:58:13;;;;;;;11.88;8.57;;;3.60;99.90;;;2.17;100.00;97159.00;4973528;28;20435;-72
2023/04/20 02:00:39;;;;;;;14.50;9.35;;;3.60;99.90;;;2.16;100.00;97162.63;4973653;28;20412;-72
2023/04/20 02:03:05;;;;;;;16.13;9.65;;;3.50;99.90;;;2.18;100.00;97163.22;4972383;28;20463;-72
2023/04/20 02:05:31;;;;;;;13.53;8.50;;;3.50;99.90;;;2.12;100.00;97164.00;4973451;28;20428;-72
2023/04/20 02:07:57;;;;;;;11.68;8.52;;;3.50;99.90;;;2.04;100.00;97156.38;4973539;28;20435;-72
2023/04/20 02:10:23;;;;;;;15.43;9.27;;;3.40;99.90;;;2.01;100.00;97159.41;4973395;28;20448;-73
2023/04/20 02:12:49;;;;;;;14.93;9.40;;;3.40;99.90;;;2.06;100.00;97157.81;4973410;28;20431;-74
2023/04/20 02:15:17;;;;;;;11.27;8.45;;;3.40;99.90;;;2.00;100.00;97152.59;4973342;28;20409;-73
2023/04/20 02:17:43;;;;;;;26.05;11.50;;;3.40;99.90;;;2.09;100.00;97149.56;4973492;28;20842;-73
2023/04/20 02:20:11;;;;;;;18.90;10.45;;;3.40;99.90;;;2.02;100.00;97146.16;4973404;28;20415;-73
2023/04/20 02:22:37;;;;;;;13.70;9.27;;;3.40;99.90;;;2.04;100.00;97146.75;4973532;28;20404;-74
2023/04/20 02:25:05;;;;;;;14.50;9.00;;;3.30;99.90;;;1.93;100.00;97136.94;4973079;28;20431;-72
2023/04/20 02:27:31;;;;;;;11.57;8.80;;;3.30;99.90;;;1.84;100.00;97138.13;4971917;28;20416;-72
2023/04/20 02:29:59;;;;;;;12.57;8.47;;;3.20;99.90;;;1.80;100.00;97132.53;4973015;28;20559;-72
2023/04/20 02:32:26;;;;;;;14.23;9.63;;;3.20;99.90;;;1.90;100.00;97130.31;4973092;28;20419;-72
2023/04/20 02:34:52;;;;;;;17.17;9.67;;;3.20;99.90;;;1.82;100.00;97134.91;4971651;28;20407;-72
2023/04/20 02:37:18;;;;;;;16.65;9.52;;;3.20;99.90;;;1.82;100.00;97127.91;4973021;28;20415;-72
2023/04/20 02:39:46;;;;;;;15.40;9.15;;;3.20;99.90;;;1.74;100.00;97129.91;4972263;28;20419;-72
2023/04/20 02:42:12;;;;;;;18.53;10.00;;;3.10;99.90;;;1.76;100.00;97128.72;4972279;28;20484;-72
2023/04/20 02:44:37;;;;;;;14.40;9.40;;;3.10;99.90;;;1.77;100.00;97126.91;4972670;28;20558;-72
2023/04/20 02:47:04;;;;;;;16.70;9.82;;;3.10;99.90;;;1.69;100.00;97127.91;4972928;28;20899;-72
2023/04/20 02:49:31;;;;;;;17.23;10.55;;;3.10;99.90;;;1.70;100.00;97119.09;4972780;28;20406;-73
2023/04/20 02:51:57;;;;;;;15.15;9.88;;;3.10;99.90;;;1.71;100.00;97120.69;4971001;28;20431;-73
2023/04/20 02:54:23;;;;;;;18.45;10.98;;;3.10;99.90;;;1.74;100.00;97112.44;4972523;28;20926;-73
2023/04/20 02:56:49;;;;;;;15.87;10.07;;;3.10;99.90;;;1.65;100.00;97111.06;4972752;28;20404;-73
2023/04/20 02:59:15;;;;;;;18.33;11.35;;;3.00;99.90;;;1.63;100.00;97105.25;4972621;28;20415;-73
2023/04/20 03:01:40;;;;;;;18.85;10.93;;;3.00;99.90;;;1.65;100.00;97112.88;4972523;28;20874;-73
2023/04/20 03:04:06;;;;;;;15.77;10.07;;;3.00;99.90;;;1.60;100.00;97108.25;4972564;28;20412;-73
2023/04/20 03:06:35;;;;;;;18.77;11.10;;;3.00;99.90;;;1.60;100.00;97107.44;4972523;28;20531;-73
2023/04/20 03:09:01;;;;;;;17.85;10.85;;;2.90;99.90;;;1.58;100.00;97114.69;4972623;28;20404;-74
2023/04/20 03:11:27;;;;;;;15.95;11.25;;;3.00;99.90;;;1.60;100.00;97112.66;4972400;28;20408;-73
2023/04/20 03:13:53;;;;;;;17.05;10.60;;;3.00;99.90;;;1.53;100.00;97110.84;4972372;28;20415;-73
2023/04/20 03:16:19;;;;;;;15.90;11.10;;;2.90;99.90;;;1.55;100.00;97102.84;4972351;28;20875;-73
2023/04/20 03:18:45;;;;;;;17.15;10.30;;;2.90;99.90;;;1.49;100.00;97101.84;4972516;28;20492;-73
2023/04/20 03:21:11;;;;;;;15.43;10.60;;;2.90;99.90;;;1.49;100.00;97106.25;4972212;28;20486;-73
2023/04/20 03:23:39;;;;;;;19.83;11.25;;;2.90;99.90;;;1.54;100.00;97096.00;4972181;28;20504;-73
2023/04/20 03:26:05;;;;;;;15.35;9.80;;;2.80;99.90;;;1.44;100.00;97096.41;4972221;28;20438;-74
2023/04/20 03:28:31;;;;;;;14.48;10.32;;;2.80;99.90;;;1.40;100.00;97103.03;4972141;28;20404;-73
2023/04/20 03:30:58;;;;;;;17.55;11.52;;;2.80;99.90;;;1.44;100.00;97100.81;4972103;28;20546;-73
2023/04/20 03:33:24;;;;;;;18.45;11.32;;;2.70;99.90;;;1.43;100.00;97094.78;4972187;28;20403;-73
2023/04/20 03:35:50;;;;;;;14.38;9.40;;;2.70;99.90;;;1.32;100.00;97097.19;4972046;28;20412;-73
2023/04/20 03:38:16;;;;;;;15.27;10.93;;;2.70;99.90;;;1.29;100.00;97098.41;4972078;28;20439;-74
2023/04/20 03:40:43;;;;;;;15.63;10.30;;;2.70;99.90;;;1.31;100.00;97087.78;4971838;28;20408;-72
2023/04/20 03:43:11;;;;;;;17.38;10.77;;;2.70;99.90;;;1.33;100.00;97088.38;4971524;28;20532;-72
2023/04/20 03:45:36;;;;;;;14.32;10.02;;;2.70;99.90;;;1.31;100.00;97087.78;4971547;28;20959;-72
2023/04/20 03:48:03;;;;;;;18.00;11.32;;;2.70;99.90;;;1.34;100.00;97097.81;4974892;28;20416;-72
2023/04/20 03:50:29;;;;;;;15.32;10.50;;;2.60;99.90;;;1.24;100.00;97079.16;4972905;28;20539;-72
2023/04/20 03:52:55;;;;;;;17.75;12.35;;;2.60;99.90;;;1.30;100.00;97083.56;4971645;28;20440;-72
2023/04/20 03:55:21;;;;;;;17.60;11.00;;;2.60;99.90;;;1.27;100.00;97078.75;4984463;28;20424;-72
2023/04/20 03:57:49;;;;;;;15.68;10.63;;;2.60;99.90;;;1.19;100.00;97086.78;5001052;28;20450;-72
2023/04/20 04:00:16;;;;;;;14.57;10.52;;;2.60;99.90;;;1.13;100.00;97083.13;4994674;28;20815;-73
2023/04/20 04:02:42;;;;;;;16.00;11.38;;;2.50;99.90;;;1.10;100.00;97078.34;4995111;28;20429;-72
2023/04/20 04:05:10;;;;;;;17.42;11.10;;;2.50;99.90;;;1.09;100.00;97081.94;4994657;28;20445;-73
2023/04/20 04:07:36;;;;;;;17.85;12.00;;;2.50;99.90;;;1.18;100.00;97080.75;4994791;28;20403;-73
2023/04/20 04:10:04;;;;;;;16.65;11.63;;;2.50;99.90;;;1.14;100.00;97084.75;4994999;28;20403;-73
2023/04/20 04:12:30;;;;;;;21.67;12.93;;;2.50;99.90;;;1.23;100.00;97073.13;4994824;28;20502;-73
2023/04/20 04:14:58;;;;;;;19.02;12.15;;;2.50;99.90;;;1.07;100.00;97076.91;4994512;28;20409;-73
2023/04/20 04:17:24;;;;;;;21.23;12.77;;;2.50;99.90;;;1.07;100.00;97076.13;4994415;28;20923;-73
2023/04/20 04:19:49;;;;;;;19.33;11.68;;;2.50;99.90;;;1.04;100.00;97079.94;4994585;28;20414;-73
2023/04/20 04:22:15;;;;;;;21.25;12.40;;;2.40;99.90;;;1.04;100.00;97079.94;4994545;28;20420;-75
2023/04/20 04:24:41;;;;;;;17.50;12.02;;;2.40;99.90;;;0.97;100.00;97070.50;4994316;28;20773;-75
2023/04/20 04:27:07;;;;;;;18.33;11.60;;;2.40;99.90;;;0.94;100.00;97076.91;4994528;28;20849;-73
2023/04/20 04:29:34;;;;;;;17.67;12.33;;;2.30;99.90;;;0.97;100.00;97075.72;4994372;28;20478;-74
2023/04/20 04:32:03;;;;;;;24.98;13.68;;;2.40;99.90;;;1.04;100.00;97079.13;4994396;28;20413;-73
2023/04/20 04:34:29;;;;;;;19.05;12.90;;;2.40;99.90;;;1.00;100.00;97075.31;4993028;28;20409;-73
2023/04/20 04:36:55;;;;;;;24.23;14.50;;;2.40;99.90;;;0.97;100.00;97075.72;4994431;28;20415;-73
2023/04/20 04:39:21;;;;;;;22.77;13.23;;;2.30;99.90;;;0.95;100.00;97077.72;4994311;28;20414;-73
2023/04/20 04:41:47;;;;;;;22.73;13.68;;;2.40;99.90;;;1.02;100.00;97074.13;4994084;28;20415;-73
2023/04/20 04:44:14;;;;;;;21.15;13.55;;;2.40;99.90;;;1.03;100.00;97080.94;4993938;28;20901;-74
2023/04/20 04:46:40;;;;;;;21.20;13.80;;;2.40;99.90;;;1.01;100.00;97077.72;4994185;28;20402;-73
2023/04/20 04:49:09;;;;;;;20.02;12.60;;;2.40;99.90;;;1.00;100.00;97080.50;4994548;28;20439;-74
2023/04/20 04:51:35;;;;;;;18.65;13.02;;;2.40;99.90;;;1.02;100.00;97075.91;4997457;28;20491;-73
2023/04/20 04:54:01;;;;;;;21.02;13.35;;;2.40;99.90;;;1.03;100.00;97083.53;4993561;28;20486;-73
2023/04/20 04:56:27;;;;;;;19.73;13.60;;;2.40;99.90;;;1.12;100.00;97077.16;4985655;28;20859;-73
2023/04/20 04:58:53;;;;;;;19.95;13.60;;;2.50;99.90;;;1.08;100.00;97070.72;4993789;28;20455;-75
2023/04/20 05:01:20;;;;;;;21.80;13.57;;;2.40;99.90;;;1.07;100.00;97074.31;4993683;28;20418;-73
2023/04/20 05:03:45;;;;;;;23.90;15.13;;;2.40;99.90;;;1.17;100.00;97079.94;4993744;28;20417;-74
2023/04/20 05:06:14;;;;;;;19.65;13.55;;;2.50;99.90;;;1.12;100.00;97079.75;4992776;28;20422;-73
2023/04/20 05:08:40;;;;;;;24.02;13.50;;;2.50;99.90;;;1.13;100.00;97077.91;5005650;28;20405;-73
2023/04/20 05:11:06;;;;;;;22.42;14.25;;;2.50;99.90;;;1.17;100.00;97081.75;5013274;28;20411;-74
2023/04/20 05:13:32;;;;;;;21.42;13.82;;;2.50;99.90;;;1.28;100.00;97082.97;5012891;28;20551;-74
2023/04/20 05:15:58;;;;;;;22.40;13.07;;;2.60;99.90;;;1.25;100.00;97070.31;5013208;28;20874;-73
2023/04/20 05:18:24;;;;;;;20.13;13.25;;;2.60;99.90;;;1.28;100.00;97078.53;5013219;28;20440;-73
2023/04/20 05:20:51;;;;;;;23.20;13.15;;;2.60;99.90;;;1.31;100.00;97078.16;5012975;28;20451;-73
2023/04/20 05:23:19;;;;;;;18.48;13.07;;;2.60;99.90;;;1.35;100.00;97081.97;5010522;28;20940;-73
2023/04/20 05:25:45;;;;;;;17.27;12.63;;;2.70;99.90;;;1.39;100.00;97083.16;4993353;28;21025;-74
2023/04/20 05:28:11;;;;;;;20.15;12.73;;;2.70;99.90;;;1.43;100.00;97093.97;4993199;28;20872;-72
2023/04/20 05:30:37;;;;;;;17.87;12.20;;;2.70;99.90;;;1.48;100.00;97087.19;4993192;28;20398;-73
2023/04/20 05:33:03;;;;;;;20.33;12.90;;;2.80;99.90;;;1.55;100.00;97095.00;4994445;28;20461;-73
2023/04/20 05:35:29;;;;;;;19.70;12.33;;;2.80;99.90;;;1.62;100.00;97087.97;5012541;28;20929;-73
2023/04/20 05:37:59;;;;;;;19.27;13.23;;;2.90;99.90;;;1.69;100.00;97088.78;5012909;28;20404;-73
2023/04/20 05:40:26;;;;;;;19.20;12.60;;;3.00;99.90;;;1.77;100.00;97085.16;5012584;28;20450;-73
2023/04/20 05:42:52;;;;;;;17.35;12.10;;;3.10;99.90;;;1.83;100.00;97085.16;5012778;28;20422;-73
2023/04/20 05:45:18;;;;;;;17.70;11.98;;;3.10;99.90;;;1.90;100.00;97085.94;5012472;28;20507;-73
2023/04/20 05:47:51;;;;;;;17.08;11.90;;;3.20;99.90;;;1.99;100.00;97083.13;5012558;28;20409;-73
2023/04/20 05:50:19;;;;;;;18.13;12.73;;;3.30;99.90;;;2.04;100.00;97084.09;5012434;28;20516;-73
2023/04/20 05:52:45;;;;;;;21.73;14.15;;;3.30;99.90;;;2.10;100.00;97078.09;5005567;28;20402;-74
2023/04/20 05:55:11;;;;;;;21.65;13.88;;;3.30;99.90;;;2.17;100.00;97083.28;4992812;28;20768;-73
2023/04/20 05:57:41;;;;;;;20.65;13.98;;;3.40;99.90;;;2.22;100.00;97076.44;4993051;28;20403;-73
2023/04/20 06:00:10;;;;;;;20.33;13.48;;;3.50;99.90;;;2.29;100.00;97076.41;4992767;28;20457;-73
2023/04/20 06:02:35;;;;;;;16.75;12.25;;;3.50;99.90;;;2.36;100.00;97081.59;4992911;28;20857;-73
2023/04/20 06:05:02;;;;;;;23.25;14.75;;;3.60;99.90;;;2.43;100.00;97077.97;4992598;28;20506;-73
2023/04/20 06:07:28;;;;;;;21.73;14.65;;;3.70;99.90;;;2.51;100.00;97069.88;4992879;28;20445;-73
2023/04/20 06:09:54;;;;;;;22.05;14.40;;;3.70;99.90;;;2.57;100.00;97074.28;4992558;28;20406;-73
2023/04/20 06:12:20;;;;;;;23.85;14.75;;;3.80;99.90;;;2.64;100.00;97071.63;4992581;28;20765;-73
2023/04/20 06:14:47;;;;;;;21.48;14.32;;;3.90;99.90;;;2.69;100.00;97070.03;5006745;28;20409;-73
2023/04/20 06:17:13;;;;;;;20.05;13.77;;;3.90;99.90;;;2.75;100.00;97078.84;5012022;28;20499;-73
2023/04/20 06:19:39;;;;;;;17.70;12.65;;;4.00;99.90;;;2.81;100.00;97071.97;5012018;28;20404;-74
2023/04/20 06:22:07;;;;;;;18.77;13.30;;;4.00;99.90;;;2.85;100.00;97070.53;5012158;28;20432;-74
2023/04/20 06:24:33;;;;;;;20.83;14.30;;;4.00;99.90;;;2.91;100.00;97072.31;5011878;28;20513;-72
2023/04/20 06:27:00;;;;;;;20.08;13.80;;;4.10;99.90;;;2.97;100.00;97077.50;5011910;28;20400;-72
2023/04/20 06:29:26;;;;;;;21.95;14.63;;;4.20;99.90;;;3.02;100.00;97066.41;4991462;28;20415;-74
2023/04/20 06:31:53;;;;;;;23.25;15.13;;;4.20;99.90;;;3.09;100.00;97064.53;4983197;28;20462;-73
2023/04/20 06:34:19;;;;;;;21.88;13.82;;;4.30;99.90;;;3.15;100.00;97066.34;4978062;28;20427;-76
2023/04/20 06:36:45;;;;;;;23.07;14.23;;;4.30;99.90;;;3.22;100.00;97074.13;4972563;28;20436;-75
2023/04/20 06:39:11;;;;;;;23.25;13.93;;;4.40;99.90;;;3.25;100.00;97078.91;4972759;28;20416;-74
2023/04/20 06:41:38;;;;;;;19.58;12.85;;;4.40;99.90;;;3.30;100.00;97064.22;4972629;28;20415;-74
2023/04/20 06:44:05;;;;;;;23.05;13.73;;;4.50;99.90;;;3.37;100.00;97061.53;4986776;28;20406;-74
2023/04/20 06:46:31;;;;;;;20.70;13.93;;;4.60;99.90;;;3.42;100.00;97065.13;4990922;28;20410;-74
2023/04/20 06:48:58;;;;;;;21.27;13.85;;;4.60;99.90;;;3.52;100.00;97062.03;4981823;28;20421;-75
2023/04/20 06:51:25;;;;;;;19.83;12.43;;;4.70;99.90;;;3.63;100.00;97063.13;4985255;28;20430;-75
2023/04/20 06:53:51;;;;;;;23.70;14.55;;;4.80;99.90;;;3.74;100.00;97059.81;4990780;28;20413;-74
2023/04/20 06:56:17;;;;;;;21.15;13.27;;;4.90;99.90;;;3.85;100.00;97062.53;4980380;28;20412;-74
2023/04/20 06:58:43;;;;;;;18.65;12.95;;;5.00;99.90;;;3.97;100.00;97060.00;4983937;28;20498;-74
2023/04/20 07:01:09;;;;;;;17.75;12.63;;;5.10;99.90;;;4.15;100.00;97051.34;4982496;28;20982;-75
2023/04/20 07:03:36;;;;;;;16.40;12.02;;;5.20;99.90;;;4.32;100.00;97051.56;4994682;28;20423;-74
2023/04/20 07:06:06;;;;;;;16.65;11.98;;;5.40;99.90;;;4.49;100.00;97056.00;4991330;28;20422;-75
2023/04/20 07:08:32;;;;;;;16.23;11.40;;;5.60;99.90;;;4.63;100.00;97049.56;4983679;28;20497;-74
2023/04/20 07:10:59;;;;;;;20.33;11.37;;;5.70;99.90;;;4.73;100.00;97048.25;4993810;28;20759;-75
2023/04/20 07:13:25;;;;;;;17.80;11.77;;;5.80;99.90;;;4.79;100.00;97049.97;4993245;28;20833;-75
2023/04/20 07:15:51;;;;;;;17.67;11.68;;;5.90;99.90;;;4.87;100.00;97055.72;4994560;28;20411;-75
2023/04/20 07:18:17;;;;;;;15.65;10.85;;;5.90;99.90;;;4.87;100.00;97055.72;4989902;28;20883;-75
2023/04/20 07:20:43;;;;;;;20.67;12.77;;;5.90;99.90;;;4.93;100.00;97057.44;5001658;28;20434;-75
2023/04/20 07:23:10;;;;;;;18.65;12.80;;;6.00;99.90;;;4.98;100.00;97052.31;4991824;28;20421;-75
2023/04/20 07:25:36;;;;;;;19.37;12.73;;;6.10;99.90;;;5.01;100.00;97046.63;4991397;28;20851;-75
2023/04/20 07:28:02;;;;;;;17.58;12.20;;;6.10;99.90;;;5.01;100.00;97045.81;4991115;28;20490;-75
2023/04/20 07:30:30;;;;;;;15.80;11.10;;;6.10;99.90;;;5.00;100.00;97050.28;4989114;28;20414;-75
2023/04/20 07:32:56;;;;;;;19.77;11.75;;;6.10;99.90;;;4.98;100.00;97047.06;4991578;28;20410;-75
2023/04/20 07:35:22;;;;;;;17.07;12.23;;;6.10;99.90;;;5.02;100.00;97050.84;4991274;28;20594;-75
2023/04/20 07:37:48;;;;;;;18.50;12.32;;;6.10;99.90;;;5.09;100.00;97045.50;4991507;28;20417;-75
2023/04/20 07:40:15;;;;;;;17.00;11.73;;;6.20;99.90;;;5.24;100.00;97050.34;4991319;28;20485;-75
2023/04/20 07:42:41;;;;;;;14.27;11.38;;;6.30;99.90;;;5.43;100.00;97039.50;4991456;28;20402;-75
2023/04/20 07:45:10;;;;;;;16.92;11.50;;;6.40;99.90;;;5.60;100.00;97042.28;4990888;28;20422;-77
2023/04/20 07:47:36;;;;;;;16.23;11.35;;;6.60;99.90;;;5.85;100.00;97047.31;4990863;28;20557;-74
2023/04/20 07:50:02;;;;;;;15.23;10.73;;;6.80;99.90;;;6.17;100.00;97047.75;4991315;28;20409;-75
2023/04/20 07:52:28;;;;;;;14.98;10.98;;;7.10;99.90;;;6.37;100.00;97055.28;4991270;28;20402;-75
2023/04/20 07:54:59;;;;;;;16.50;11.85;;;7.30;99.90;;;6.39;100.00;97046.09;4993447;28;20394;-75
2023/04/20 07:57:27;;;;;;;16.05;10.60;;;7.40;99.90;;;6.57;100.00;97043.31;4991415;28;20819;-75
2023/04/20 07:59:53;;;;;;;15.48;10.63;;;7.50;99.90;;;6.62;100.00;97053.13;4983124;28;20402;-74
2023/04/20 08:02:19;;;;;;;17.65;11.73;;;7.60;99.90;;;6.61;100.00;97052.31;4983539;28;20494;-74
2023/04/20 08:04:45;;;;;;;13.13;10.27;;;7.60;99.90;;;6.67;100.00;97053.25;4988336;28;20454;-74
2023/04/20 08:07:12;;;;;;;15.32;10.68;;;7.70;99.90;;;6.75;100.00;97047.63;4985673;28;20411;-74
2023/04/20 08:09:38;;;;;;;14.50;10.77;;;7.70;99.90;;;6.91;100.00;97044.25;4991008;28;20405;-74
2023/04/20 08:12:04;;;;;;;13.87;9.67;;;7.90;99.90;;;7.03;100.00;97053.91;4993616;28;20773;-74
2023/04/20 08:14:32;;;;;;;14.20;9.95;;;8.00;99.90;;;7.10;100.00;97052.72;5000369;28;20443;-74
2023/04/20 08:16:58;;;;;;;14.93;10.13;;;8.10;99.90;;;7.22;100.00;97052.63;4990543;28;20409;-74
2023/04/20 08:19:25;;;;;;;12.40;9.43;;;8.20;99.90;;;7.26;100.00;97045.88;4991054;28;20407;-74
2023/04/20 08:21:51;;;;;;;14.13;9.98;;;8.20;99.90;;;7.27;100.00;97042.22;4990920;28;20407;-74
2023/04/20 08:24:17;;;;;;;15.77;9.98;;;8.20;99.90;;;7.24;100.00;97040.03;4990834;28;20411;-74
2023/04/20 08:26:44;;;;;;;17.63;10.05;;;8.20;99.90;;;7.15;100.00;97039.63;4991284;28;20931;-74
2023/04/20 08:29:10;;;;;;;16.17;11.20;;;8.10;99.90;;;7.04;100.00;97037.88;4991245;28;20947;-74
2023/04/20 08:31:37;;;;;;;15.07;10.60;;;8.00;99.90;;;6.92;100.00;97039.75;4989918;28;20453;-74
2023/04/20 08:34:03;;;;;;;13.60;10.00;;;8.00;99.90;;;6.80;100.00;97047.69;4990902;28;20505;-74
2023/04/20 08:36:29;;;;;;;20.55;12.40;;;7.80;99.90;;;6.58;100.00;97047.56;4990992;28;20497;-74
2023/04/20 08:39:06;;;;;;;14.77;11.07;;;7.70;99.90;;;6.53;100.00;97041.41;4991002;28;20486;-75
2023/04/20 08:41:32;;;;;;;17.42;12.00;;;7.60;99.90;;;6.44;100.00;97048.84;4993327;28;20893;-75
2023/04/20 08:43:58;;;;;;;17.00;12.52;;;7.50;99.90;;;6.30;100.00;97055.41;4994564;28;20453;-74
2023/04/20 08:46:24;;;;;;;20.88;13.18;;;7.40;99.90;;;6.22;100.00;97047.88;4994201;28;20418;-74
2023/04/20 08:48:54;;;;;;;16.52;12.63;;;7.30;99.90;;;6.09;100.00;97046.28;4995070;28;20421;-75
2023/04/20 08:51:21;;;;;;;17.90;12.15;;;7.10;99.90;;;6.04;100.00;97048.81;4994590;28;20407;-76
2023/04/20 08:53:48;;;;;;;21.48;13.13;;;7.10;99.90;;;6.02;100.00;97045.59;4994525;28;20399;-74
2023/04/20 08:56:13;;;;;;;17.35;12.95;;;7.10;99.90;;;6.01;100.00;97043.22;4993317;28;20540;-74
2023/04/20 08:58:42;;;;;;;21.55;12.68;;;7.10;99.90;;;6.03;100.00;97039.31;4993530;28;20485;-74
2023/04/20 09:01:10;;;;;;;19.30;12.50;;;7.10;99.90;;;6.04;100.00;97038.28;4994465;28;20546;-75
2023/04/20 09:03:38;;;;;;;19.73;13.25;;;7.10;99.90;;;6.04;100.00;97048.81;4994368;28;20410;-75
2023/04/20 09:06:16;;;;;;;22.20;14.68;;;7.10;99.90;;;6.04;100.00;97046.19;4994435;28;20448;-75
2023/04/20 09:08:44;;;;;;;19.02;13.27;;;7.10;99.90;;;6.04;100.00;97042.75;4994474;28;20468;-75
2023/04/20 09:11:21;;;;;;;17.50;12.48;;;7.10;99.90;;;6.05;100.00;97047.78;4994198;28;20904;-75
2023/04/20 09:13:58;;;;;;;17.55;12.57;;;7.10;99.90;;;6.04;100.00;97038.28;4994035;28;20403;-74
2023/04/20 09:16:24;;;;;;;19.25;12.30;;;7.10;99.90;;;6.06;100.00;97040.69;4999932;28;20459;-75
2023/04/20 09:18:53;;;;;;;17.80;11.88;;;7.10;99.90;;;6.09;100.00;97032.38;5013566;28;20747;-75
2023/04/20 09:21:21;;;;;;;20.77;13.65;;;7.10;99.90;;;6.12;100.00;97039.78;5011973;28;20404;-75
2023/04/20 09:23:56;;;;;;;19.17;12.75;;;7.10;99.90;;;6.16;100.00;97041.69;5013397;28;20407;-74
2023/04/20 09:26:22;;;;;;;18.42;12.45;;;7.20;99.90;;;6.17;100.00;97035.41;5005318;28;20424;-75
2023/04/20 09:28:48;;;;;;;17.63;11.80;;;7.20;99.90;;;6.17;100.00;97031.97;4974537;28;20466;-74
2023/04/20 09:31:18;;;;;;;17.63;11.82;;;7.20;99.90;;;6.16;100.00;97036.44;4974298;28;20423;-73
2023/04/20 09:33:46;;;;;;;17.40;12.10;;;7.20;99.90;;;6.17;100.00;97030.16;4974324;28;20400;-74
2023/04/20 09:36:16;;;;;;;19.25;12.35;;;7.20;99.90;;;6.20;100.00;97028.91;4974171;28;20466;-73
2023/04/20 09:38:43;;;;;;;21.25;13.85;;;7.20;99.90;;;6.17;100.00;97021.47;4974002;28;20887;-73
2023/04/20 09:41:09;;;;;;;19.52;12.23;;;7.20;99.90;;;6.18;100.00;97029.13;4973190;28;20871;-73
2023/04/20 09:43:35;;;;;;;18.35;12.30;;;7.20;99.90;;;6.17;100.00;97022.28;4973589;28;20972;-73
2023/04/20 09:46:03;;;;;;;18.75;12.57;;;7.20;99.90;;;6.16;100.00;97023.28;4973637;28;20523;-73
2023/04/20 09:48:29;;;;;;;22.30;13.20;;;7.20;99.90;;;6.15;100.00;97029.59;4973381;28;20420;-73
2023/04/20 09:50:57;;;;;;;22.33;13.18;;;7.20;99.90;;;6.15;100.00;97034.06;4973182;28;20471;-74
2023/04/20 09:53:24;;;;;;;24.98;15.75;;;7.20;99.90;;;6.14;100.00;97027.22;4973671;28;20408;-73
2023/04/20 09:55:53;;;;;;;24.33;14.32;;;7.20;99.90;;;6.11;100.00;97025.03;4965142;28;20440;-73
2023/04/20 09:58:20;;;;;;;20.92;13.20;;;7.20;99.90;;;6.09;100.00;97024.47;4961515;28;20408;-73
2023/04/20 10:00:46;;;;;;;17.40;12.75;;;7.20;99.90;;;6.07;100.00;97029.97;4967212;28;20645;-74
2023/04/20 10:03:16;;;;;;;19.00;12.68;;;7.10;99.90;;;6.10;100.00;97028.69;4975607;28;20876;-74
2023/04/20 10:05:42;;;;;;;19.95;13.75;;;7.10;99.90;;;6.07;100.00;97029.16;4979868;28;20768;-74
2023/04/20 10:08:08;;;;;;;24.23;16.03;;;7.10;99.90;;;6.06;100.00;97030.19;4976218;28;20404;-75
2023/04/20 10:10:45;;;;;;;22.52;15.32;;;7.10;99.90;;;6.01;100.00;97025.63;4983164;28;20413;-74
2023/04/20 10:13:13;;;;;;;24.75;14.75;;;7.10;99.90;;;6.05;100.00;97031.22;4980747;28;20410;-75